createdAt,value
2023-03-08T00:01:50.539Z,98888.09
2023-03-08T00:04:57.798Z,98893.03
2023-03-08T00:08:08.543Z,98884.50
2023-03-08T00:11:22.668Z,98883.59
2023-03-08T00:14:40.583Z,98894.28
2023-03-08T00:17:56.956Z,98887.78
2023-03-08T00:21:39.516Z,98889.31
2023-03-08T00:24:46.344Z,98893.25
2023-03-08T00:27:53.568Z,98892.63
2023-03-08T00:31:49.966Z,98891.19
2023-03-08T00:34:58.798Z,98882.25
2023-03-08T00:38:35.900Z,98878.16
2023-03-08T00:41:55.856Z,98887.56
2023-03-08T00:45:03.443Z,98884.06
2023-03-08T00:48:40.177Z,98885.72
2023-03-08T00:51:53.389Z,98881.91
2023-03-08T00:55:05.928Z,98873.88
2023-03-08T01:03:30.383Z,98860.72
2023-03-08T01:07:47.230Z,98857.31
2023-03-08T01:11:18.730Z,98848.03
2023-03-08T01:14:26.910Z,98849.72
2023-03-08T01:17:33.151Z,98854.06
2023-03-08T01:26:05.035Z,98847.81
2023-03-08T01:29:07.096Z,98858.84
2023-03-08T01:37:22.091Z,98840.22
2023-03-08T01:40:23.995Z,98836.28
2023-03-08T01:43:29.150Z,98824.19
2023-03-08T01:46:32.035Z,98824.19
2023-03-08T01:49:42.179Z,98828.47
2023-03-08T01:52:48.626Z,98832.47
2023-03-08T01:55:50.430Z,98822.63
2023-03-08T01:58:54.827Z,98819.13
2023-03-08T02:01:57.875Z,98820.31
2023-03-08T02:05:00.116Z,98826.16
2023-03-08T02:08:02.208Z,98813.00
2023-03-08T02:11:11.712Z,98812.72
2023-03-08T02:14:15.218Z,98802.94
2023-03-08T02:17:19.866Z,98801.41
2023-03-08T02:20:26.552Z,98797.47
2023-03-08T02:23:29.742Z,98795.28
2023-03-08T02:26:33.273Z,98788.03
2023-03-08T02:29:35.214Z,98783.47
2023-03-08T02:32:39.296Z,98785.63
2023-03-08T02:35:45.225Z,98776.78
2023-03-08T02:38:51.565Z,98774.81
2023-03-08T02:41:53.211Z,98762.84
2023-03-08T02:44:57.343Z,98766.25
2023-03-08T02:47:59.390Z,98757.38
2023-03-08T02:51:03.918Z,98759.22
2023-03-08T02:54:07.052Z,98764.13
2023-03-08T02:57:08.807Z,98759.22
2023-03-08T03:00:13.401Z,98754.78
2023-03-08T03:03:16.269Z,98746.97
2023-03-08T03:06:22.226Z,98746.34
2023-03-08T03:09:31.275Z,98745.56
2023-03-08T03:12:33.213Z,98744.94
2023-03-08T03:15:38.999Z,98740.66
2023-03-08T03:18:41.685Z,98729.47
2023-03-08T03:21:43.455Z,98727.25
2023-03-08T03:24:46.609Z,98720.97
2023-03-08T03:27:48.495Z,98712.00
2023-03-08T03:30:53.832Z,98717.38
2023-03-08T03:33:55.800Z,98723.50
2023-03-08T03:37:00.724Z,98717.09
2023-03-08T03:40:04.719Z,98708.22
2023-03-08T03:43:06.892Z,98712.25
2023-03-08T03:46:12.289Z,98713.50
2023-03-08T03:49:14.411Z,98716.31
2023-03-08T03:52:18.713Z,98717.16
2023-03-08T03:55:30.355Z,98711.25
2023-03-08T03:58:32.827Z,98711.38
2023-03-08T04:01:34.886Z,98717.00
2023-03-08T04:04:44.829Z,98713.13
2023-03-08T04:07:49.272Z,98714.25
2023-03-08T04:10:52.932Z,98705.91
2023-03-08T04:13:55.969Z,98703.00
2023-03-08T04:17:00.618Z,98690.97
2023-03-08T04:20:14.385Z,98695.41
2023-03-08T04:23:21.148Z,98693.88
2023-03-08T04:26:25.654Z,98684.75
2023-03-08T04:29:27.571Z,98698.94
2023-03-08T04:32:30.986Z,98707.03
2023-03-08T04:35:33.106Z,98699.56
2023-03-08T04:38:35.134Z,98686.41
2023-03-08T04:41:39.356Z,98685.00
2023-03-08T04:44:55.591Z,98673.22
2023-03-08T04:47:59.012Z,98669.28
2023-03-08T04:51:03.832Z,98658.13
2023-03-08T04:54:05.704Z,98659.16
2023-03-08T04:57:12.453Z,98660.88
2023-03-08T05:00:15.484Z,98659.03
2023-03-08T05:03:18.883Z,98659.97
2023-03-08T05:06:22.013Z,98658.13
2023-03-08T05:09:24.491Z,98655.19
2023-03-08T05:12:29.416Z,98646.19
2023-03-08T05:15:34.187Z,98640.63
2023-03-08T05:18:37.584Z,98632.84
2023-03-08T05:21:40.312Z,98637.91
2023-03-08T05:24:42.216Z,98639.88
2023-03-08T05:27:47.992Z,98648.59
2023-03-08T05:30:50.981Z,98656.22
2023-03-08T05:33:53.814Z,98652.72
2023-03-08T05:37:05.732Z,98647.88
2023-03-08T05:40:11.267Z,98637.03
2023-03-08T05:43:17.508Z,98633.25
2023-03-08T05:46:20.008Z,98625.63
2023-03-08T05:49:23.267Z,98625.88
2023-03-08T05:52:26.076Z,98618.09
2023-03-08T05:55:28.343Z,98620.41
2023-03-08T05:58:32.724Z,98612.13
2023-03-08T06:01:35.761Z,98606.81
2023-03-08T06:04:54.179Z,98610.44
2023-03-08T06:07:58.546Z,98600.03
2023-03-08T06:11:00.562Z,98589.66
2023-03-08T06:14:04.200Z,98581.38
2023-03-08T06:17:07.789Z,98579.84
2023-03-08T06:20:12.902Z,98569.59
2023-03-08T06:23:19.424Z,98570.47
2023-03-08T06:26:21.677Z,98561.28
2023-03-08T06:29:24.976Z,98565.09
2023-03-08T06:32:27.266Z,98577.59
2023-03-08T06:35:29.308Z,98563.66
2023-03-08T06:38:37.381Z,98555.75
2023-03-08T06:41:40.126Z,98555.25
2023-03-08T06:44:43.715Z,98553.13
2023-03-08T06:47:45.561Z,98556.81
2023-03-08T06:50:48.423Z,98554.34
2023-03-08T06:53:51.185Z,98545.78
2023-03-08T06:56:58.821Z,98538.13
2023-03-08T07:00:02.102Z,98529.56
2023-03-08T07:03:04.043Z,98531.34
2023-03-08T07:06:09.133Z,98525.16
2023-03-08T07:09:11.027Z,98523.63
2023-03-08T07:12:12.707Z,98518.69
2023-03-08T07:15:18.897Z,98508.56
2023-03-08T07:18:21.597Z,98500.00
2023-03-08T07:21:24.432Z,98508.84
2023-03-08T07:24:26.234Z,98510.13
2023-03-08T07:27:28.033Z,98510.50
2023-03-08T07:30:31.289Z,98501.50
2023-03-08T07:33:33.768Z,98502.03
2023-03-08T07:36:35.707Z,98492.75
2023-03-08T07:39:37.409Z,98477.94
2023-03-08T07:42:39.248Z,98472.75
2023-03-08T07:45:53.557Z,98479.69
2023-03-08T07:48:55.582Z,98471.34
2023-03-08T07:51:57.502Z,98465.50
2023-03-08T07:54:59.227Z,98478.63
2023-03-08T07:58:01.015Z,98473.13
2023-03-08T08:01:09.390Z,98471.03
2023-03-08T08:04:12.509Z,98459.16
2023-03-08T08:07:15.746Z,98454.03
2023-03-08T08:10:17.851Z,98446.47
2023-03-08T08:13:19.539Z,98444.22
2023-03-08T08:16:22.690Z,98439.22
2023-03-08T08:19:24.617Z,98437.38
2023-03-08T08:22:26.500Z,98426.59
2023-03-08T08:25:28.305Z,98403.63
2023-03-08T08:28:30.228Z,98417.34
2023-03-08T08:31:33.372Z,98402.34
2023-03-08T08:34:35.271Z,98385.16
2023-03-08T08:37:36.998Z,98373.91
2023-03-08T08:40:39.682Z,98368.41
2023-03-08T08:43:41.616Z,98360.50
2023-03-08T08:46:44.752Z,98362.00
2023-03-08T08:49:46.628Z,98351.44
2023-03-08T08:52:48.505Z,98338.66
2023-03-08T08:55:50.404Z,98313.53
2023-03-08T08:58:52.141Z,98310.66
2023-03-08T09:01:57.340Z,98310.34
2023-03-08T09:04:59.167Z,98300.34
2023-03-08T09:08:02.093Z,98306.50
2023-03-08T09:11:04.723Z,98295.34
2023-03-08T09:14:06.416Z,98294.38
2023-03-08T09:17:09.424Z,98296.94
2023-03-08T09:20:12.132Z,98291.75
2023-03-08T09:23:14.348Z,98296.00
2023-03-08T09:26:16.216Z,98297.91
2023-03-08T09:29:17.960Z,98288.44
2023-03-08T09:32:21.254Z,98280.25
2023-03-08T09:35:23.220Z,98266.19
2023-03-08T09:38:25.359Z,98264.25
2023-03-08T09:41:49.883Z,98266.31
2023-03-08T09:45:16.770Z,98272.41
2023-03-08T09:48:26.549Z,98245.41
2023-03-08T09:51:39.354Z,98243.09
2023-03-08T09:54:41.383Z,98245.75
2023-03-08T09:57:49.047Z,98235.84
2023-03-08T10:00:51.040Z,98242.47
2023-03-08T10:04:19.060Z,98232.03
2023-03-08T10:07:31.788Z,98221.84
2023-03-08T10:10:46.326Z,98205.13
2023-03-08T10:13:50.262Z,98190.50
2023-03-08T10:16:56.203Z,98184.28
2023-03-08T10:20:06.976Z,98182.88
2023-03-08T10:23:14.557Z,98172.97
2023-03-08T10:26:17.737Z,98171.19
2023-03-08T10:29:19.640Z,98165.44
2023-03-08T10:32:22.370Z,98173.25
2023-03-08T10:35:34.569Z,98173.78
2023-03-08T10:38:37.135Z,98171.31
2023-03-08T10:41:43.541Z,98173.38
2023-03-08T10:44:54.543Z,98178.06
2023-03-08T10:47:58.981Z,98167.94
2023-03-08T10:51:08.137Z,98165.59
2023-03-08T10:54:15.367Z,98154.53
2023-03-08T10:57:19.753Z,98153.50
2023-03-08T11:00:30.992Z,98145.56
2023-03-08T11:03:33.758Z,98141.03
2023-03-08T11:06:36.975Z,98129.97
2023-03-08T11:09:38.791Z,98136.59
2023-03-08T11:12:40.665Z,98131.38
2023-03-08T11:15:46.478Z,98118.22
2023-03-08T11:18:59.723Z,98129.41
2023-03-08T11:22:16.971Z,98129.69
2023-03-08T11:25:32.413Z,98115.09
2023-03-08T11:29:01.370Z,98114.44
2023-03-08T11:32:14.692Z,98116.03
2023-03-08T11:35:25.379Z,98128.34
2023-03-08T11:38:30.453Z,98096.47
2023-03-08T11:41:41.749Z,98104.91
2023-03-08T11:44:50.566Z,98102.44
2023-03-08T11:48:18.748Z,98100.59
2023-03-08T11:51:29.851Z,98100.75
2023-03-08T11:54:45.058Z,98093.19
2023-03-08T11:57:54.428Z,98085.75
2023-03-08T12:01:01.280Z,98082.13
2023-03-08T12:04:09.521Z,98093.00
2023-03-08T12:07:18.418Z,98094.53
2023-03-08T12:10:24.239Z,98086.84
2023-03-08T12:13:34.222Z,98096.22
2023-03-08T12:16:44.575Z,98084.22
2023-03-08T12:19:47.863Z,98086.38
2023-03-08T12:22:54.703Z,98093.66
2023-03-08T12:26:05.191Z,98089.06
2023-03-08T12:29:13.509Z,98081.59
2023-03-08T12:32:18.725Z,98077.78
2023-03-08T12:35:28.281Z,98079.06
2023-03-08T12:38:34.071Z,98074.34
2023-03-08T12:41:37.404Z,98077.34
2023-03-08T12:44:39.913Z,98069.88
2023-03-08T12:47:41.725Z,98063.09
2023-03-08T12:50:46.656Z,98061.06
2023-03-08T12:54:01.300Z,98062.44
2023-03-08T12:57:16.615Z,98055.56
2023-03-08T13:00:27.300Z,98048.00
2023-03-08T13:03:38.172Z,98049.63
2023-03-08T13:07:04.308Z,98043.16
2023-03-08T13:10:19.411Z,98051.56
2023-03-08T13:13:38.822Z,98055.72
2023-03-08T13:17:01.237Z,98048.69
2023-03-08T13:20:11.644Z,98045.66
2023-03-08T13:23:25.361Z,98047.00
2023-03-08T13:26:50.298Z,98036.53
2023-03-08T13:30:09.018Z,98040.28
2023-03-08T13:33:14.777Z,98041.59
2023-03-08T13:36:20.628Z,98046.47
2023-03-08T13:39:26.708Z,98043.16
2023-03-08T13:42:29.485Z,98049.59
2023-03-08T13:45:35.285Z,98048.50
2023-03-08T13:48:37.297Z,98050.53
2023-03-08T13:51:39.572Z,98056.53
2023-03-08T13:54:45.288Z,98060.56
2023-03-08T13:57:51.942Z,98061.84
2023-03-08T14:01:04.591Z,98056.38
2023-03-08T14:04:11.635Z,98051.16
2023-03-08T14:07:22.047Z,98038.09
2023-03-08T14:10:29.500Z,98036.72
2023-03-08T14:13:34.694Z,98042.50
2023-03-08T14:16:41.912Z,98044.06
2023-03-08T14:19:43.966Z,98047.72
2023-03-08T14:22:49.270Z,98053.56
2023-03-08T14:25:56.571Z,98043.97
2023-03-08T14:29:16.604Z,98031.44
2023-03-08T14:32:30.779Z,98027.72
2023-03-08T14:35:35.008Z,98028.66
2023-03-08T14:38:36.960Z,98040.44
2023-03-08T14:41:39.168Z,98020.44
2023-03-08T14:44:41.351Z,98023.06
2023-03-08T14:47:50.847Z,98012.81
2023-03-08T14:50:55.957Z,98014.81
2023-03-08T14:54:00.198Z,98004.88
2023-03-08T14:57:16.721Z,98014.38
2023-03-08T15:00:19.683Z,97992.88
2023-03-08T15:03:23.814Z,98003.88
2023-03-08T15:06:28.073Z,98008.59
2023-03-08T15:09:32.056Z,97999.66
2023-03-08T15:12:33.959Z,97975.31
2023-03-08T15:15:35.769Z,97985.97
2023-03-08T15:18:38.871Z,97978.13
2023-03-08T15:21:41.398Z,97976.81
2023-03-08T15:24:43.140Z,97974.38
2023-03-08T15:27:44.962Z,97973.69
2023-03-08T15:30:47.108Z,97975.03
2023-03-08T15:33:50.291Z,97976.53
2023-03-08T15:36:53.117Z,97978.25
2023-03-08T15:39:54.839Z,97978.94
2023-03-08T15:42:57.988Z,97970.56
2023-03-08T15:45:59.866Z,97972.88
2023-03-08T15:49:03.553Z,97969.94
2023-03-08T15:52:07.527Z,97963.47
2023-03-08T15:55:11.872Z,97953.72
2023-03-08T15:58:13.545Z,97964.84
2023-03-08T16:01:15.313Z,97950.38
2023-03-08T16:04:18.746Z,97965.16
2023-03-08T16:07:20.556Z,97961.63
2023-03-08T16:10:23.167Z,97965.06
2023-03-08T16:13:27.357Z,97952.59
2023-03-08T16:16:43.948Z,97945.91
2023-03-08T16:19:47.752Z,97936.78
2023-03-08T16:22:50.670Z,97942.63
2023-03-08T16:26:13.582Z,97971.00
2023-03-08T16:29:17.134Z,97968.31
2023-03-08T16:32:19.587Z,97978.47
2023-03-08T16:35:22.718Z,97967.00
2023-03-08T16:38:24.509Z,97982.91
2023-03-08T16:41:28.483Z,97979.19
2023-03-08T16:44:30.821Z,97978.00
2023-03-08T16:47:32.873Z,97974.47
2023-03-08T16:50:36.010Z,97960.31
2023-03-08T16:53:38.041Z,97962.91
2023-03-08T16:56:42.216Z,97973.75
2023-03-08T16:59:44.351Z,97962.09
2023-03-08T17:02:46.707Z,97957.69
2023-03-08T17:05:52.665Z,97953.16
2023-03-08T17:08:54.875Z,97948.81
2023-03-08T17:11:56.676Z,97971.06
2023-03-08T17:14:58.421Z,97970.72
2023-03-08T17:18:00.073Z,97966.78
2023-03-08T17:21:11.165Z,97960.50
2023-03-08T17:24:13.698Z,97967.13
2023-03-08T17:27:15.720Z,97975.09
2023-03-08T17:30:18.018Z,97977.81
2023-03-08T17:33:20.818Z,97972.13
2023-03-08T17:36:25.978Z,97984.28
2023-03-08T17:39:27.731Z,97989.81
2023-03-08T17:42:29.481Z,97983.28
2023-03-08T17:45:31.330Z,97993.75
2023-03-08T17:48:33.518Z,97995.16
2023-03-08T17:51:36.718Z,97992.72
2023-03-08T17:54:38.623Z,98000.19
2023-03-08T17:57:40.407Z,97993.63
2023-03-08T18:00:44.930Z,97982.75
2023-03-08T18:03:47.570Z,97990.41
2023-03-08T18:06:50.759Z,97987.50
2023-03-08T18:09:52.496Z,97988.31
2023-03-08T18:12:54.281Z,97984.06
2023-03-08T18:15:56.163Z,97983.47
2023-03-08T18:18:58.270Z,97987.78
2023-03-08T18:22:04.096Z,98004.59
2023-03-08T18:25:06.677Z,98008.19
2023-03-08T18:28:11.082Z,98009.03
2023-03-08T18:31:16.142Z,98009.81
2023-03-08T18:34:17.729Z,98007.22
2023-03-08T18:37:21.030Z,98001.66
2023-03-08T18:40:23.151Z,98005.00
2023-03-08T18:43:27.566Z,98007.72
2023-03-08T18:46:31.090Z,98011.41
2023-03-08T18:49:32.789Z,98007.63
2023-03-08T18:52:35.938Z,98008.78
2023-03-08T18:55:37.660Z,98007.78
2023-03-08T18:58:39.585Z,98001.34
2023-03-08T19:01:41.403Z,98010.81
2023-03-08T19:04:43.117Z,98004.66
2023-03-08T19:07:46.682Z,98011.59
2023-03-08T19:10:48.379Z,98013.72
2023-03-08T19:13:50.335Z,98014.03
2023-03-08T19:16:52.246Z,98023.25
2023-03-08T19:19:53.975Z,98026.88
2023-03-08T19:22:57.065Z,98026.88
2023-03-08T19:26:17.357Z,98037.03
2023-03-08T19:29:20.792Z,98021.44
2023-03-08T19:32:22.699Z,98014.03
2023-03-08T19:35:24.533Z,98020.28
2023-03-08T19:38:27.647Z,98027.81
2023-03-08T19:41:29.678Z,98027.72
2023-03-08T19:44:32.853Z,98037.66
2023-03-08T19:47:34.531Z,98028.94
2023-03-08T19:50:36.217Z,98018.06
2023-03-08T19:53:40.157Z,98020.28
2023-03-08T19:56:42.576Z,98019.06
2023-03-08T19:59:44.381Z,98016.47
2023-03-08T20:02:46.125Z,98010.84
2023-03-08T20:05:47.912Z,98012.63
2023-03-08T20:08:51.467Z,98017.84
2023-03-08T20:11:57.715Z,98010.59
2023-03-08T20:15:00.409Z,98003.88
2023-03-08T20:18:02.255Z,98000.16
2023-03-08T20:21:04.341Z,98002.88
2023-03-08T20:24:07.908Z,97994.41
2023-03-08T20:27:09.619Z,97990.72
2023-03-08T20:30:12.926Z,97992.50
2023-03-08T20:33:15.069Z,97985.28
2023-03-08T20:36:16.825Z,97985.50
2023-03-08T20:39:21.356Z,97980.88
2023-03-08T20:42:22.960Z,97983.69
2023-03-08T20:45:25.562Z,97980.63
2023-03-08T20:48:27.224Z,97990.41
2023-03-08T20:51:29.324Z,97984.56
2023-03-08T20:54:32.546Z,97986.47
2023-03-08T20:57:34.439Z,97989.81
2023-03-08T21:00:36.196Z,97991.09
2023-03-08T21:03:38.296Z,97997.47
2023-03-08T21:06:40.122Z,97995.63
2023-03-08T21:09:44.790Z,97994.94
2023-03-08T21:12:49.278Z,97998.34
2023-03-08T21:15:51.624Z,98003.59
2023-03-08T21:18:55.037Z,97994.84
2023-03-08T21:21:56.819Z,97985.19
2023-03-08T21:24:59.990Z,97976.72
2023-03-08T21:28:01.869Z,97974.44
2023-03-08T21:31:08.289Z,97971.31
2023-03-08T21:34:12.784Z,97965.38
2023-03-08T21:37:14.509Z,97950.97
2023-03-08T21:40:18.562Z,97962.94
2023-03-08T21:43:20.225Z,97965.47
2023-03-08T21:46:22.107Z,97956.03
2023-03-08T21:49:25.739Z,97968.16
2023-03-08T21:52:27.676Z,97975.50
2023-03-08T21:55:30.709Z,97975.91
2023-03-08T21:58:32.450Z,97960.94
2023-03-08T22:01:34.538Z,97957.44
2023-03-08T22:04:37.786Z,97946.88
2023-03-08T22:07:39.891Z,97947.84
2023-03-08T22:10:42.994Z,97953.19
2023-03-08T22:13:50.045Z,97943.59
2023-03-08T22:16:53.038Z,97936.69
2023-03-08T22:19:54.885Z,97940.50
2023-03-08T22:22:57.423Z,97945.34
2023-03-08T22:26:00.497Z,97931.66
2023-03-08T22:29:02.314Z,97936.97
2023-03-08T22:32:04.822Z,97930.84
2023-03-08T22:35:08.045Z,97930.25
2023-03-08T22:38:09.707Z,97915.75
2023-03-08T22:41:15.018Z,97909.69
2023-03-08T22:44:16.839Z,97908.97
2023-03-08T22:47:19.276Z,97897.78
2023-03-08T22:50:23.572Z,97894.38
2023-03-08T22:53:25.323Z,97896.38
2023-03-08T22:56:33.104Z,97885.59
2023-03-08T22:59:34.902Z,97882.84
2023-03-08T23:02:36.626Z,97862.56
2023-03-08T23:05:38.454Z,97857.25
2023-03-08T23:08:40.347Z,97842.81
2023-03-08T23:11:43.829Z,97832.81
2023-03-08T23:14:45.513Z,97824.09
2023-03-08T23:17:47.252Z,97834.59
2023-03-08T23:20:48.931Z,97831.88
2023-03-08T23:23:50.850Z,97831.25
2023-03-08T23:27:00.056Z,97818.53
2023-03-08T23:30:01.859Z,97797.41
2023-03-08T23:33:03.860Z,97798.28
2023-03-08T23:36:06.644Z,97790.97
2023-03-08T23:39:08.623Z,97785.66
2023-03-08T23:42:11.812Z,97788.97
2023-03-08T23:45:13.701Z,97793.94
2023-03-08T23:48:17.730Z,97799.00
2023-03-08T23:51:20.915Z,97798.84
2023-03-08T23:54:22.823Z,97799.91
2023-03-08T23:57:26.032Z,97806.69
